createdAt,value
2022-10-24T00:01:43.316Z,50.83
2022-10-24T00:05:47.486Z,61.90
2022-10-24T00:09:49.358Z,58.80
2022-10-24T00:13:51.806Z,59.75
2022-10-24T00:17:53.784Z,61.53
2022-10-24T00:21:55.507Z,71.03
2022-10-24T00:26:01.897Z,66.15
2022-10-24T00:30:05.408Z,55.28
2022-10-24T00:34:07.364Z,72.32
2022-10-24T00:38:09.033Z,59.90
2022-10-24T00:42:12.711Z,58.70
2022-10-24T00:46:16.617Z,69.85
2022-10-24T00:50:18.546Z,70.35
2022-10-24T00:54:20.771Z,58.30
2022-10-24T00:58:27.576Z,59.35
2022-10-24T01:02:29.248Z,63.72
2022-10-24T01:07:09.700Z,62.83
2022-10-24T01:11:44.901Z,67.72
2022-10-24T01:15:56.628Z,58.90
2022-10-24T01:20:16.288Z,64.68
2022-10-24T01:24:45.959Z,52.58
2022-10-24T01:33:18.650Z,63.88
2022-10-24T01:37:27.806Z,48.87
2022-10-24T01:41:31.209Z,62.38
2022-10-24T01:45:36.289Z,64.55
2022-10-24T01:49:41.146Z,56.55
2022-10-24T01:53:44.657Z,54.75
2022-10-24T01:57:46.861Z,66.53
2022-10-24T02:01:48.742Z,58.72
2022-10-24T02:05:58.302Z,55.33
2022-10-24T02:10:06.302Z,55.88
2022-10-24T02:14:36.903Z,75.60
2022-10-24T02:18:39.971Z,60.72
2022-10-24T02:23:14.121Z,64.47
2022-10-24T02:27:21.371Z,65.53
2022-10-24T02:31:27.220Z,62.03
2022-10-24T02:35:32.672Z,66.72
2022-10-24T02:39:35.218Z,67.72
2022-10-24T02:43:38.668Z,63.53
2022-10-24T02:47:43.731Z,64.00
2022-10-24T02:51:47.339Z,69.10
2022-10-24T02:55:49.256Z,71.13
2022-10-24T02:59:50.908Z,62.25
2022-10-24T03:03:52.736Z,70.05
2022-10-24T03:07:54.437Z,70.55
2022-10-24T03:11:56.245Z,65.25
2022-10-24T03:15:58.508Z,71.30
2022-10-24T03:20:00.538Z,73.68
2022-10-24T03:24:02.206Z,71.05
2022-10-24T03:28:04.852Z,73.78
2022-10-24T03:32:06.683Z,73.57
2022-10-24T03:36:08.972Z,70.93
2022-10-24T03:40:11.680Z,73.45
2022-10-24T03:44:13.473Z,80.90
2022-10-24T03:48:15.112Z,74.10
2022-10-24T03:52:17.035Z,77.13
2022-10-24T03:56:18.845Z,63.63
2022-10-24T04:00:21.350Z,66.47
2022-10-24T04:04:23.361Z,68.20
2022-10-24T04:08:25.203Z,58.42
2022-10-24T04:12:26.895Z,70.65
2022-10-24T04:16:29.169Z,51.78
2022-10-24T04:20:30.801Z,58.17
2022-10-24T04:24:33.340Z,56.45
2022-10-24T04:28:35.321Z,59.60
2022-10-24T04:32:37.697Z,55.63
2022-10-24T04:36:39.415Z,57.20
2022-10-24T04:40:51.944Z,60.25
2022-10-24T04:44:53.609Z,54.60
2022-10-24T04:48:55.374Z,58.83
2022-10-24T04:52:57.244Z,63.95
2022-10-24T04:56:59.583Z,65.13
2022-10-24T05:01:01.430Z,63.90
2022-10-24T05:05:04.096Z,66.00
2022-10-24T05:09:05.851Z,62.78
2022-10-24T05:13:07.663Z,61.95
2022-10-24T05:17:09.492Z,60.40
2022-10-24T05:21:11.630Z,65.15
2022-10-24T05:25:13.545Z,62.95
2022-10-24T05:29:15.565Z,61.60
2022-10-24T05:33:17.240Z,77.05
2022-10-24T05:37:19.103Z,66.25
2022-10-24T05:41:21.058Z,59.72
2022-10-24T05:45:23.039Z,60.80
2022-10-24T05:49:24.989Z,68.53
2022-10-24T05:53:27.282Z,67.45
2022-10-24T05:57:30.026Z,69.15
2022-10-24T06:01:32.153Z,66.72
2022-10-24T06:05:34.057Z,62.05
2022-10-24T06:09:35.899Z,63.08
2022-10-24T06:13:38.295Z,65.07
2022-10-24T06:17:40.265Z,60.22
2022-10-24T06:21:41.978Z,57.03
2022-10-24T06:25:43.839Z,60.47
2022-10-24T06:29:45.644Z,55.95
2022-10-24T06:33:47.574Z,54.83
2022-10-24T06:37:50.223Z,55.28
2022-10-24T06:41:52.431Z,51.50
2022-10-24T06:45:55.504Z,52.20
2022-10-24T06:49:57.373Z,50.55
2022-10-24T06:53:59.913Z,49.90
2022-10-24T06:58:01.841Z,49.17
2022-10-24T07:02:06.010Z,48.47
2022-10-24T07:10:29.975Z,47.05
2022-10-24T07:14:31.827Z,46.53
2022-10-24T07:18:33.779Z,49.60
2022-10-24T07:22:36.033Z,49.08
2022-10-24T07:26:39.106Z,48.35
2022-10-24T07:30:44.086Z,45.83
2022-10-24T07:34:47.770Z,43.78
2022-10-24T07:38:51.819Z,41.17
2022-10-24T07:42:53.549Z,44.78
2022-10-24T07:46:55.787Z,50.30
2022-10-24T07:50:57.695Z,50.17
2022-10-24T07:54:59.651Z,49.03
2022-10-24T07:59:09.227Z,52.58
2022-10-24T08:03:11.762Z,46.28
2022-10-24T08:07:13.832Z,45.30
2022-10-24T08:11:19.478Z,45.50
2022-10-24T08:15:23.063Z,44.53
2022-10-24T08:23:33.755Z,47.30
2022-10-24T08:27:36.076Z,39.38
2022-10-24T08:31:38.664Z,41.05
2022-10-24T08:35:43.536Z,36.97
2022-10-24T08:39:45.291Z,38.03
2022-10-24T08:43:47.459Z,36.67
2022-10-24T08:48:07.120Z,37.13
2022-10-24T08:52:30.411Z,33.08
2022-10-24T08:56:33.962Z,34.08
2022-10-24T09:00:42.586Z,33.50
2022-10-24T09:04:58.227Z,34.28
2022-10-24T09:09:06.047Z,32.95
2022-10-24T09:13:13.770Z,33.25
2022-10-24T09:17:33.725Z,30.73
2022-10-24T09:21:35.516Z,29.25
2022-10-24T09:25:41.507Z,30.15
2022-10-24T09:29:43.647Z,29.15
2022-10-24T09:33:47.869Z,27.38
2022-10-24T09:37:55.856Z,27.77
2022-10-24T09:41:59.616Z,26.00
2022-10-24T09:46:06.212Z,27.10
2022-10-24T09:50:22.494Z,26.67
2022-10-24T09:54:28.121Z,26.35
2022-10-24T09:58:34.123Z,27.27
2022-10-24T10:02:36.614Z,26.23
2022-10-24T10:06:44.676Z,24.98
2022-10-24T10:10:57.804Z,24.53
2022-10-24T10:15:02.665Z,23.60
2022-10-24T10:19:15.153Z,24.85
2022-10-24T10:23:22.521Z,25.50
2022-10-24T10:27:34.922Z,25.38
2022-10-24T10:31:48.628Z,25.55
2022-10-24T10:36:16.446Z,24.23
2022-10-24T10:40:39.888Z,24.95
2022-10-24T10:44:55.134Z,23.70
2022-10-24T10:49:12.039Z,24.10
2022-10-24T10:53:31.705Z,23.52
2022-10-24T10:57:59.488Z,22.70
2022-10-24T11:02:23.301Z,23.42
2022-10-24T11:06:36.875Z,20.05
2022-10-24T11:10:44.765Z,20.33
2022-10-24T11:15:00.867Z,20.60
2022-10-24T11:19:26.103Z,17.60
2022-10-24T11:23:40.965Z,18.70
2022-10-24T11:27:55.243Z,17.55
2022-10-24T11:32:14.792Z,17.80
2022-10-24T11:36:23.164Z,16.95
2022-10-24T11:45:00.212Z,15.60
2022-10-24T11:49:23.461Z,15.85
2022-10-24T11:53:31.541Z,16.15
2022-10-24T11:57:33.959Z,15.75
2022-10-24T12:01:55.341Z,16.23
2022-10-24T12:06:55.950Z,14.20
2022-10-24T12:11:32.247Z,14.82
2022-10-24T12:15:52.239Z,15.15
2022-10-24T12:19:54.546Z,14.32
2022-10-24T12:23:59.805Z,11.25
2022-10-24T12:28:18.190Z,12.45
2022-10-24T12:32:36.179Z,12.00
2022-10-24T12:37:03.118Z,12.47
2022-10-24T12:41:06.863Z,10.63
2022-10-24T12:45:32.175Z,10.07
2022-10-24T12:49:33.908Z,10.98
2022-10-24T12:53:55.951Z,10.88
2022-10-24T12:57:58.403Z,10.82
2022-10-24T13:02:15.535Z,10.15
2022-10-24T13:06:40.987Z,9.43
2022-10-24T13:11:13.503Z,8.85
2022-10-24T13:15:46.144Z,8.70
2022-10-24T13:20:02.541Z,8.05
2022-10-24T13:24:16.580Z,8.15
2022-10-24T13:28:24.389Z,9.10
2022-10-24T13:32:32.370Z,8.67
2022-10-24T13:36:34.849Z,8.53
2022-10-24T13:40:36.777Z,8.38
2022-10-24T13:44:45.329Z,8.02
2022-10-24T13:48:48.870Z,8.57
2022-10-24T13:52:54.955Z,9.77
2022-10-24T13:56:59.748Z,8.75
2022-10-24T14:01:07.450Z,9.23
2022-10-24T14:05:22.227Z,7.63
2022-10-24T14:09:24.204Z,7.47
2022-10-24T14:13:28.299Z,9.13
2022-10-24T14:17:34.500Z,7.75
2022-10-24T14:21:42.474Z,9.32
2022-10-24T14:25:44.482Z,7.77
2022-10-24T14:29:56.673Z,9.68
2022-10-24T14:33:58.547Z,8.85
2022-10-24T14:38:00.662Z,7.68
2022-10-24T14:42:03.126Z,8.25
2022-10-24T14:46:13.605Z,8.38
2022-10-24T14:50:43.761Z,8.95
2022-10-24T14:55:02.479Z,11.63
2022-10-24T14:59:15.399Z,9.80
2022-10-24T15:03:17.398Z,11.50
2022-10-24T15:07:37.809Z,11.30
2022-10-24T15:11:41.905Z,10.65
2022-10-24T15:15:43.739Z,9.95
2022-10-24T15:19:47.211Z,10.20
2022-10-24T15:23:55.722Z,12.95
2022-10-24T15:28:01.206Z,13.20
2022-10-24T15:32:06.117Z,12.43
2022-10-24T15:36:26.123Z,12.02
2022-10-24T15:40:31.400Z,11.60
2022-10-24T15:44:33.576Z,12.13
2022-10-24T15:48:35.466Z,11.98
2022-10-24T15:52:37.314Z,12.38
2022-10-24T15:56:39.673Z,14.07
2022-10-24T16:00:41.737Z,15.80
2022-10-24T16:04:44.792Z,14.30
2022-10-24T16:08:46.463Z,14.38
2022-10-24T16:12:50.101Z,18.30
2022-10-24T16:16:55.430Z,15.13
2022-10-24T16:20:59.060Z,14.55
2022-10-24T16:25:00.709Z,17.80
2022-10-24T16:29:02.738Z,21.20
2022-10-24T16:33:04.751Z,21.95
2022-10-24T16:37:06.639Z,21.80
2022-10-24T16:41:15.003Z,22.42
2022-10-24T16:45:17.859Z,23.35
2022-10-24T16:49:19.520Z,21.60
2022-10-24T16:53:22.148Z,21.52
2022-10-24T17:01:28.038Z,21.92
2022-10-24T17:05:29.937Z,22.48
2022-10-24T17:09:31.897Z,18.33
2022-10-24T17:13:33.696Z,18.23
2022-10-24T17:17:36.177Z,22.50
2022-10-24T17:21:37.811Z,24.77
2022-10-24T17:25:40.024Z,24.55
2022-10-24T17:29:43.083Z,21.35
2022-10-24T17:33:45.124Z,23.65
2022-10-24T17:38:40.140Z,29.50
2022-10-24T17:42:43.356Z,26.88
2022-10-24T17:46:45.838Z,26.65
2022-10-24T17:50:48.211Z,30.05
2022-10-24T17:54:50.718Z,46.20
2022-10-24T17:58:52.626Z,76.85
2022-10-24T18:02:54.489Z,66.78
2022-10-24T18:06:56.577Z,68.55
2022-10-24T18:11:04.027Z,82.97
2022-10-24T18:15:08.259Z,77.15
2022-10-24T18:19:10.020Z,59.47
2022-10-24T18:23:11.858Z,47.03
2022-10-24T18:27:13.537Z,44.13
2022-10-24T18:31:21.451Z,42.90
2022-10-24T18:35:23.414Z,36.20
2022-10-24T18:39:29.152Z,37.00
2022-10-24T18:43:31.896Z,34.95
2022-10-24T18:47:34.206Z,41.33
2022-10-24T18:52:01.312Z,35.75
2022-10-24T18:56:03.456Z,36.90
2022-10-24T19:00:06.682Z,41.97
2022-10-24T19:04:21.049Z,55.13
2022-10-24T19:08:25.489Z,60.28
2022-10-24T19:12:28.272Z,65.43
2022-10-24T19:16:32.396Z,53.70
2022-10-24T19:20:35.712Z,54.13
2022-10-24T19:24:37.429Z,46.25
2022-10-24T19:28:39.428Z,46.60
2022-10-24T19:32:41.173Z,55.53
2022-10-24T19:36:43.031Z,50.33
2022-10-24T19:40:52.881Z,47.60
2022-10-24T19:44:56.454Z,51.22
2022-10-24T19:48:58.078Z,52.33
2022-10-24T19:52:59.969Z,54.33
2022-10-24T19:57:01.755Z,50.95
2022-10-24T20:01:16.759Z,53.58
2022-10-24T20:05:18.694Z,55.38
2022-10-24T20:09:20.636Z,57.58
2022-10-24T20:13:22.597Z,58.35
2022-10-24T20:17:24.514Z,62.13
2022-10-24T20:21:26.353Z,56.95
2022-10-24T20:25:28.234Z,55.33
2022-10-24T20:29:29.891Z,52.65
2022-10-24T20:33:32.423Z,48.70
2022-10-24T20:37:34.222Z,49.50
2022-10-24T20:41:37.022Z,50.00
2022-10-24T20:45:40.129Z,52.78
2022-10-24T20:49:41.941Z,60.30
2022-10-24T20:53:44.001Z,50.65
2022-10-24T20:57:45.974Z,52.55
2022-10-24T21:01:47.708Z,45.72
2022-10-24T21:05:49.679Z,50.40
2022-10-24T21:09:51.341Z,55.90
2022-10-24T21:14:05.428Z,48.22
2022-10-24T21:18:07.055Z,44.45
2022-10-24T21:22:09.109Z,49.35
2022-10-24T21:26:13.344Z,49.50
2022-10-24T21:30:15.484Z,54.70
2022-10-24T21:34:18.262Z,46.60
2022-10-24T21:38:20.195Z,47.70
2022-10-24T21:42:21.794Z,46.50
2022-10-24T21:46:26.391Z,49.72
2022-10-24T21:50:28.002Z,51.20
2022-10-24T21:54:30.463Z,47.92
2022-10-24T21:58:32.582Z,54.55
2022-10-24T22:02:34.779Z,46.28
2022-10-24T22:06:37.423Z,45.28
2022-10-24T22:10:39.512Z,55.58
2022-10-24T22:14:41.169Z,42.08
2022-10-24T22:18:43.032Z,47.90
2022-10-24T22:22:44.849Z,41.65
2022-10-24T22:26:47.729Z,41.63
2022-10-24T22:30:49.619Z,42.40
2022-10-24T22:34:51.736Z,54.83
2022-10-24T22:38:54.536Z,52.03
2022-10-24T22:42:57.261Z,46.38
2022-10-24T22:47:21.722Z,40.88
2022-10-24T22:51:23.825Z,45.17
2022-10-24T22:55:33.207Z,50.72
2022-10-24T22:59:35.527Z,47.13
2022-10-24T23:03:46.559Z,41.60
2022-10-24T23:08:04.843Z,50.85
2022-10-24T23:12:15.946Z,50.42
2022-10-24T23:16:29.403Z,42.95
2022-10-24T23:20:39.275Z,49.17
2022-10-24T23:24:41.468Z,53.47
2022-10-24T23:28:54.081Z,46.35
2022-10-24T23:32:56.322Z,54.95
2022-10-24T23:37:04.125Z,43.25
2022-10-24T23:41:10.511Z,40.25
2022-10-24T23:45:16.991Z,39.78
2022-10-24T23:49:34.910Z,57.10
2022-10-24T23:53:49.977Z,42.50
2022-10-24T23:57:51.809Z,47.97
